Time;durP1;ratioP1;P1;durP2;ratioP2;P2;SDS_P1;SDS_P2;PMS_P1;PMS_P2;Temp;Humidity;BMP_temperature;BMP_pressure;BME280_temperature;BME280_humidity;BME280_pressure;Samples;Min_cycle;Max_cycle;Signal;HPM_P1;HPM_P2
2022/08/06 07:13:26;;;;;;;13.82;8.93;;;29.70;58.80;;;;;;5052919;27;20118;-86
2022/08/06 07:15:53;;;;;;;13.35;9.98;;;29.80;59.50;;;;;;5035058;28;20080;-86
2022/08/06 07:18:21;;;;;;;16.52;10.98;;;29.80;59.90;;;;;;4957418;28;20035;-87
2022/08/06 07:20:48;;;;;;;12.18;9.50;;;29.80;60.70;;;;;;4973579;28;20054;-84
2022/08/06 07:23:16;;;;;;;12.60;8.80;;;29.90;60.20;;;;;;5002618;28;20600;-85
2022/08/06 07:25:44;;;;;;;15.57;8.65;;;29.90;59.50;;;;;;4938982;28;20522;-91
2022/08/06 07:28:12;;;;;;;10.75;8.43;;;29.90;59.40;;;;;;4938917;28;20541;-87
2022/08/06 07:30:40;;;;;;;12.88;8.02;;;29.90;58.60;;;;;;4973299;28;20043;-92
2022/08/06 07:33:09;;;;;;;14.07;7.43;;;30.00;59.10;;;;;;4969933;27;20085;-87
2022/08/06 07:35:40;;;;;;;11.68;7.47;;;30.10;57.70;;;;;;4964825;28;20023;-86
2022/08/06 07:38:07;;;;;;;11.10;7.47;;;30.10;57.80;;;;;;4953640;28;20594;-85
2022/08/06 07:40:39;;;;;;;15.15;8.45;;;30.20;57.80;;;;;;4942703;28;20035;-87
2022/08/06 07:43:15;;;;;;;11.45;7.90;;;30.20;57.30;;;;;;4978106;28;20045;-87
2022/08/06 07:45:41;;;;;;;9.20;7.70;;;30.10;58.50;;;;;;4984194;28;20038;-88
2022/08/06 07:48:13;;;;;;;12.43;8.40;;;30.10;58.40;;;;;;4945928;28;20458;-82
2022/08/06 07:50:50;;;;;;;11.07;7.13;;;30.10;57.90;;;;;;4963486;28;20027;-86
2022/08/06 07:53:19;;;;;;;10.13;7.72;;;30.10;57.60;;;;;;4994631;28;20103;-86
2022/08/06 07:55:47;;;;;;;8.48;7.07;;;30.00;57.60;;;;;;4977786;28;20031;-84
2022/08/06 07:58:14;;;;;;;9.00;7.13;;;30.00;57.50;;;;;;5017350;28;20047;-84
2022/08/06 08:00:42;;;;;;;10.10;6.35;;;30.00;57.90;;;;;;5009025;28;20522;-83
2022/08/06 08:08:40;;;;;;;7.70;6.80;;;29.90;58.30;;;;;;5057111;28;20060;-82
2022/08/06 08:11:07;;;;;;;9.85;6.78;;;29.90;58.30;;;;;;4974853;28;20066;-83
2022/08/06 08:13:34;;;;;;;9.77;7.47;;;29.90;58.60;;;;;;5043602;28;20039;-83
2022/08/06 08:16:01;;;;;;;10.20;6.85;;;29.90;59.00;;;;;;5023942;28;20531;-83
2022/08/06 08:18:31;;;;;;;10.13;7.10;;;29.80;59.30;;;;;;4982607;28;20036;-85
2022/08/06 08:20:59;;;;;;;10.75;7.00;;;29.80;59.10;;;;;;5068376;28;20033;-85
2022/08/06 08:23:28;;;;;;;9.60;7.50;;;29.80;59.50;;;;;;5027781;28;20099;-84
2022/08/06 08:25:57;;;;;;;8.90;7.63;;;29.80;59.00;;;;;;5046283;28;20455;-85
2022/08/06 08:28:23;;;;;;;8.50;7.10;;;29.80;59.10;;;;;;4980131;28;20091;-81
2022/08/06 08:30:49;;;;;;;14.13;7.50;;;29.80;58.90;;;;;;4950627;28;20417;-84
2022/08/06 08:33:15;;;;;;;7.50;6.70;;;29.80;59.30;;;;;;4928770;28;20055;-88
2022/08/06 08:35:42;;;;;;;7.57;6.70;;;29.80;58.80;;;;;;4928239;28;20035;-82
2022/08/06 08:38:07;;;;;;;7.85;6.97;;;29.90;58.00;;;;;;4957558;28;20039;-82
2022/08/06 08:40:35;;;;;;;9.52;7.00;;;29.90;58.40;;;;;;4939362;28;20043;-85
2022/08/06 08:43:02;;;;;;;8.48;7.10;;;29.80;59.20;;;;;;4953959;28;20462;-86
2022/08/06 08:45:29;;;;;;;13.85;7.20;;;29.80;59.40;;;;;;4939981;28;20043;-81
2022/08/06 08:47:57;;;;;;;12.77;7.07;;;29.80;57.40;;;;;;4955963;28;20966;-84
2022/08/06 08:50:27;;;;;;;8.52;6.40;;;29.90;57.90;;;;;;4934166;28;20516;-83
2022/08/06 08:53:03;;;;;;;10.48;7.22;;;29.80;59.40;;;;;;4935357;28;20046;-82
2022/08/06 08:55:29;;;;;;;7.38;6.63;;;29.70;60.10;;;;;;4968380;28;20042;-82
2022/08/06 08:57:56;;;;;;;9.02;6.28;;;29.70;58.40;;;;;;4962315;28;20050;-81
2022/08/06 09:00:22;;;;;;;7.50;6.70;;;29.80;57.30;;;;;;4959364;28;20085;-85
2022/08/06 09:02:50;;;;;;;10.23;6.55;;;29.80;57.00;;;;;;4941439;28;20062;-81
2022/08/06 09:05:16;;;;;;;7.70;5.95;;;29.90;56.10;;;;;;4945737;28;20145;-84
2022/08/06 09:07:43;;;;;;;9.70;6.25;;;30.00;57.00;;;;;;4962569;28;20042;-83
2022/08/06 09:10:10;;;;;;;12.27;6.60;;;29.90;56.90;;;;;;4945020;28;20062;-82
2022/08/06 09:12:37;;;;;;;8.60;5.93;;;30.00;57.00;;;;;;4971743;28;20518;-87
2022/08/06 09:15:03;;;;;;;9.18;6.22;;;29.90;56.10;;;;;;4941820;28;20031;-86
2022/08/06 09:17:30;;;;;;;7.88;6.65;;;29.90;57.90;;;;;;4986479;28;20023;-85
2022/08/06 09:19:56;;;;;;;6.75;5.93;;;29.80;58.40;;;;;;4958408;28;20154;-81
2022/08/06 09:22:22;;;;;;;9.57;6.28;;;29.80;57.40;;;;;;4956971;28;20562;-82
2022/08/06 09:24:48;;;;;;;10.20;6.60;;;29.80;57.70;;;;;;4956100;28;20067;-82
2022/08/06 09:27:17;;;;;;;9.43;6.63;;;29.80;57.20;;;;;;4954765;27;20067;-85
2022/08/06 09:29:56;;;;;;;10.70;6.53;;;29.80;58.10;;;;;;4959124;28;20043;-87
2022/08/06 09:32:40;;;;;;;9.20;6.70;;;29.80;58.90;;;;;;4932980;28;20050;-85
2022/08/06 09:35:35;;;;;;;9.85;6.90;;;29.70;58.80;;;;;;4972661;28;20066;-82
2022/08/06 09:38:08;;;;;;;10.32;6.35;;;29.80;58.00;;;;;;4969665;28;20034;-87
2022/08/06 09:40:34;;;;;;;8.30;6.78;;;29.70;58.80;;;;;;4953962;28;20563;-83
2022/08/06 09:43:00;;;;;;;12.15;7.07;;;29.70;58.70;;;;;;4955600;28;20038;-84
2022/08/06 09:45:27;;;;;;;7.43;6.63;;;29.70;59.30;;;;;;4938850;28;20042;-86
2022/08/06 09:48:06;;;;;;;7.60;6.72;;;29.70;59.80;;;;;;4938678;28;20511;-87
2022/08/06 09:50:40;;;;;;;8.98;7.18;;;29.80;58.50;;;;;;4927478;28;20027;-87
2022/08/06 09:53:06;;;;;;;9.75;6.97;;;29.70;59.40;;;;;;4987265;28;20039;-89
2022/08/06 09:55:33;;;;;;;9.27;6.95;;;29.70;59.70;;;;;;4961707;28;20066;-86
2022/08/06 09:58:00;;;;;;;8.88;6.78;;;29.70;58.90;;;;;;4991056;28;20590;-88
2022/08/06 10:00:28;;;;;;;9.30;7.28;;;29.60;59.80;;;;;;4966433;28;20040;-81
2022/08/06 10:03:08;;;;;;;12.50;6.57;;;29.60;60.10;;;;;;5037913;28;20040;-79
2022/08/06 10:05:34;;;;;;;9.88;7.00;;;29.70;60.60;;;;;;4962687;28;20414;-83
2022/08/06 10:08:09;;;;;;;8.85;7.25;;;29.70;58.50;;;;;;4987945;28;20097;-84
2022/08/06 10:10:51;;;;;;;10.85;7.20;;;29.80;58.80;;;;;;4950836;28;20039;-83
2022/08/06 10:13:26;;;;;;;8.55;7.70;;;29.70;59.80;;;;;;5006307;28;20627;-83
2022/08/06 10:15:57;;;;;;;8.05;6.65;;;29.70;59.70;;;;;;5013653;28;20103;-80
2022/08/06 10:18:37;;;;;;;11.25;7.22;;;29.70;59.20;;;;;;4936036;28;20546;-85
2022/08/06 10:21:10;;;;;;;7.30;6.63;;;29.80;59.50;;;;;;4921600;28;20548;-86
2022/08/06 10:23:38;;;;;;;7.68;6.97;;;29.70;59.40;;;;;;4986926;28;20161;-86
2022/08/06 10:26:07;;;;;;;9.93;7.22;;;29.70;59.70;;;;;;4943802;28;20034;-88
2022/08/06 10:28:35;;;;;;;7.55;6.78;;;29.70;59.80;;;;;;4942253;28;20418;-88
2022/08/06 10:31:14;;;;;;;11.15;6.68;;;29.70;60.10;;;;;;4954265;28;20035;-84
2022/08/06 10:34:06;;;;;;;8.60;6.65;;;29.70;60.20;;;;;;4965055;28;20072;-91
2022/08/06 10:36:39;;;;;;;8.55;6.68;;;29.70;60.20;;;;;;5020762;28;20032;-88
2022/08/06 10:39:07;;;;;;;7.20;6.57;;;29.70;60.00;;;;;;5015045;28;20030;-83
2022/08/06 10:41:35;;;;;;;8.02;6.28;;;29.70;60.40;;;;;;4941995;28;20090;-85
2022/08/06 10:44:02;;;;;;;7.70;6.25;;;29.70;60.50;;;;;;4949394;28;20193;-82
2022/08/06 10:46:29;;;;;;;6.85;6.25;;;29.70;60.70;;;;;;4948905;28;20035;-82
2022/08/06 10:48:56;;;;;;;8.05;6.05;;;29.60;60.60;;;;;;4955975;28;20047;-85
2022/08/06 10:51:23;;;;;;;7.40;6.63;;;29.70;60.80;;;;;;4948386;28;20073;-85
2022/08/06 10:53:49;;;;;;;7.80;6.65;;;29.70;60.90;;;;;;4953829;28;20050;-83
2022/08/06 10:56:17;;;;;;;7.53;6.80;;;29.70;61.00;;;;;;4995622;28;20120;-83
2022/08/06 10:58:44;;;;;;;7.97;7.15;;;29.70;61.10;;;;;;4986142;28;20066;-90
2022/08/06 11:01:28;;;;;;;7.72;6.93;;;29.70;61.60;;;;;;4978032;28;20197;-89
2022/08/06 11:04:05;;;;;;;13.40;7.53;;;29.80;61.30;;;;;;5007381;28;20047;-84
2022/08/06 11:06:46;;;;;;;8.95;6.25;;;29.80;61.20;;;;;;4968683;28;20031;-83
2022/08/06 11:09:41;;;;;;;7.85;6.63;;;29.80;59.20;;;;;;4988396;28;23049;-90
2022/08/06 11:12:10;;;;;;;9.25;6.93;;;29.80;61.80;;;;;;5042212;28;20057;-88
2022/08/06 11:14:38;;;;;;;28.75;8.00;;;29.80;62.10;;;;;;5038256;28;20038;-90
2022/08/06 11:19:40;;;;;;;9.23;6.88;;;29.90;61.90;;;;;;5121242;27;20121;-90
2022/08/06 11:22:06;;;;;;;11.18;7.07;;;29.90;62.30;;;;;;5099683;28;20122;-92
2022/08/06 11:24:33;;;;;;;15.80;7.20;;;30.00;62.70;;;;;;5087004;28;20035;-86
2022/08/06 11:26:59;;;;;;;8.70;6.78;;;29.90;62.20;;;;;;5064752;28;20410;-86
2022/08/06 11:29:25;;;;;;;13.85;7.70;;;29.90;62.00;;;;;;5081192;28;20043;-82
2022/08/06 11:31:51;;;;;;;12.00;7.00;;;29.90;61.90;;;;;;5099573;28;20031;-85
2022/08/06 11:34:20;;;;;;;13.00;7.32;;;29.90;61.90;;;;;;5098119;28;20048;-83
2022/08/06 11:36:56;;;;;;;47.83;8.73;;;30.00;61.50;;;;;;5083816;28;20046;-88
2022/08/06 11:39:24;;;;;;;122.28;11.88;;;30.00;61.20;;;;;;5084976;28;20074;-87
2022/08/06 11:41:55;;;;;;;11.52;7.57;;;30.10;60.30;;;;;;5116892;28;20122;-85
2022/08/06 11:44:23;;;;;;;16.73;7.47;;;30.10;59.90;;;;;;5083019;28;20052;-86
2022/08/06 11:47:05;;;;;;;14.93;7.63;;;30.10;59.90;;;;;;5082330;28;20056;-82
2022/08/06 11:49:36;;;;;;;14.50;7.28;;;30.10;59.90;;;;;;5083477;28;20043;-85
2022/08/06 11:54:33;;;;;;;24.67;8.15;;;30.00;59.00;;;;;;5048620;27;20494;-93
2022/08/06 11:57:06;;;;;;;19.67;7.53;;;30.60;58.40;;;;;;5004014;28;20398;-90
2022/08/06 11:59:34;;;;;;;21.70;7.22;;;31.00;58.80;;;;;;5002174;28;20030;-81
2022/08/06 12:02:46;;;;;;;10.32;7.30;;;31.10;57.80;;;;;;5113737;27;20113;-81
2022/08/06 12:05:15;;;;;;;23.58;7.22;;;30.70;58.10;;;;;;5054504;28;20051;-79
2022/08/06 12:07:44;;;;;;;7.95;6.80;;;30.40;58.60;;;;;;5045659;28;20534;-77
2022/08/06 12:10:13;;;;;;;9.68;6.25;;;30.30;57.80;;;;;;5036457;28;20037;-76
2022/08/06 12:12:48;;;;;;;6.75;6.00;;;30.10;59.20;;;;;;5043268;28;20244;-82
2022/08/06 12:15:21;;;;;;;28.15;7.25;;;30.10;59.80;;;;;;5057893;28;20045;-79
2022/08/06 12:17:57;;;;;;;18.73;7.47;;;30.10;59.70;;;;;;5053437;28;20482;-81
2022/08/06 12:23:06;;;;;;;175.20;15.57;;;30.10;61.10;;;;;;5047170;27;20127;-86
2022/08/06 17:50:02;;;;;;;16.98;6.95;;;28.00;62.50;;;;;;5075983;27;2054402;-92
2022/08/06 17:52:28;;;;;;;12.07;6.55;;;28.00;63.20;;;;;;5122764;27;20038;-90
2022/08/06 17:54:55;;;;;;;13.82;6.72;;;28.00;63.30;;;;;;5108377;28;20116;-88
2022/08/06 17:57:22;;;;;;;13.93;7.30;;;28.00;63.20;;;;;;5098916;28;20169;-88
2022/08/06 17:59:48;;;;;;;11.65;7.03;;;28.10;63.30;;;;;;5102246;28;20371;-87
2022/08/06 18:02:14;;;;;;;8.95;7.22;;;28.10;63.30;;;;;;5081971;28;20064;-83
2022/08/06 18:04:41;;;;;;;8.32;5.80;;;28.10;63.10;;;;;;5100430;28;20118;-81
2022/08/06 18:07:07;;;;;;;11.82;6.93;;;28.10;63.00;;;;;;5116102;27;20409;-90
2022/08/06 18:09:34;;;;;;;10.70;6.80;;;28.20;63.10;;;;;;5142098;27;20050;-91
2022/08/06 18:12:00;;;;;;;12.15;6.70;;;28.10;63.10;;;;;;5120197;27;20034;-89
2022/08/06 18:14:27;;;;;;;9.95;6.43;;;28.20;63.00;;;;;;5119524;27;20091;-84
2022/08/06 18:16:53;;;;;;;11.25;6.38;;;28.20;62.60;;;;;;5122294;27;20124;-85
2022/08/06 18:19:19;;;;;;;12.75;6.85;;;28.20;62.70;;;;;;5143567;27;20035;-90
2022/08/06 18:21:46;;;;;;;8.82;6.78;;;28.20;62.90;;;;;;5141023;27;21443;-84
2022/08/06 18:24:15;;;;;;;9.75;6.55;;;28.20;62.60;;;;;;5140325;27;20112;-91
2022/08/06 18:26:41;;;;;;;8.13;6.63;;;28.20;63.00;;;;;;5144398;27;20027;-86
2022/08/06 18:29:06;;;;;;;10.57;6.25;;;28.20;62.90;;;;;;5126614;27;20050;-83
2022/08/06 18:31:36;;;;;;;10.15;7.47;;;28.20;62.90;;;;;;5140530;27;20031;-82
2022/08/06 18:34:02;;;;;;;11.27;7.15;;;28.20;63.00;;;;;;5141193;27;20031;-90
2022/08/06 18:36:28;;;;;;;11.80;6.38;;;28.20;62.90;;;;;;5137355;27;20032;-85
2022/08/06 18:38:55;;;;;;;8.15;6.28;;;28.20;62.70;;;;;;5115811;27;20027;-87
2022/08/06 18:41:24;;;;;;;10.20;7.60;;;28.20;62.80;;;;;;5126134;27;20524;-84
2022/08/06 18:43:50;;;;;;;10.52;6.57;;;28.20;62.70;;;;;;5142183;27;20035;-85
2022/08/06 18:46:18;;;;;;;16.00;6.68;;;28.20;62.80;;;;;;5118967;27;20087;-84
2022/08/06 18:48:44;;;;;;;6.88;6.22;;;28.10;63.00;;;;;;5139686;27;20047;-89
2022/08/06 18:51:13;;;;;;;8.98;6.50;;;28.20;63.00;;;;;;5136002;27;20058;-84
2022/08/06 18:53:41;;;;;;;8.13;6.30;;;28.20;62.70;;;;;;5124259;27;20042;-84
2022/08/06 18:56:08;;;;;;;9.52;6.90;;;28.20;62.50;;;;;;5121758;27;21047;-85
2022/08/06 18:58:34;;;;;;;9.68;6.60;;;28.20;62.80;;;;;;5137073;27;20065;-87
2022/08/06 19:00:59;;;;;;;7.55;6.75;;;28.30;62.70;;;;;;5121951;27;20058;-88
2022/08/06 19:03:25;;;;;;;11.50;6.25;;;28.20;62.60;;;;;;5124750;27;20569;-84
2022/08/06 19:05:54;;;;;;;9.25;6.32;;;28.20;62.90;;;;;;5123132;27;20035;-92
2022/08/06 19:08:20;;;;;;;8.13;6.60;;;28.20;62.80;;;;;;5115515;27;20051;-88
2022/08/06 19:10:46;;;;;;;9.75;6.47;;;28.20;63.00;;;;;;5128486;27;20418;-82
2022/08/06 19:13:12;;;;;;;16.23;6.63;;;28.20;63.10;;;;;;5126722;27;20053;-87
2022/08/06 19:15:38;;;;;;;10.00;6.80;;;28.20;63.00;;;;;;5126604;27;20588;-87
2022/08/06 19:18:04;;;;;;;9.23;6.53;;;28.20;63.10;;;;;;5127719;27;20122;-81
2022/08/06 19:20:30;;;;;;;11.75;7.30;;;28.10;63.00;;;;;;5122677;27;20066;-84
2022/08/06 19:22:56;;;;;;;10.90;6.70;;;28.10;63.10;;;;;;5124465;27;20067;-80
2022/08/06 19:25:22;;;;;;;16.13;7.10;;;28.10;63.40;;;;;;5093471;27;20031;-80
2022/08/06 19:27:48;;;;;;;10.20;6.90;;;28.10;63.60;;;;;;5109203;27;20122;-81
2022/08/06 19:30:15;;;;;;;11.02;6.78;;;28.00;63.90;;;;;;5120961;27;20034;-85
2022/08/06 19:32:41;;;;;;;8.80;6.88;;;28.00;64.80;;;;;;5093875;27;20019;-87
2022/08/06 19:35:07;;;;;;;12.35;7.28;;;28.00;65.30;;;;;;5092985;27;20039;-84
2022/08/06 19:37:34;;;;;;;8.13;6.88;;;28.00;65.20;;;;;;5091964;27;20047;-81
2022/08/06 19:42:45;;;;;;;13.00;7.45;;;28.00;65.90;;;;;;5127101;27;20043;-85
2022/08/06 19:45:11;;;;;;;12.65;7.57;;;28.00;65.90;;;;;;5124572;27;20030;-85
2022/08/06 19:47:37;;;;;;;8.93;7.07;;;27.90;66.40;;;;;;5124131;27;20035;-84
2022/08/06 19:50:04;;;;;;;14.60;7.78;;;27.90;66.20;;;;;;5126831;27;19952;-91
2022/08/06 19:52:30;;;;;;;12.52;7.47;;;27.90;66.70;;;;;;5095696;27;20053;-88
2022/08/06 19:54:56;;;;;;;12.43;7.50;;;27.90;66.40;;;;;;5112088;27;20047;-90
2022/08/06 19:57:24;;;;;;;8.10;7.30;;;27.90;66.20;;;;;;5096844;27;20035;-91
2022/08/06 19:59:51;;;;;;;10.85;7.15;;;27.90;66.20;;;;;;5122607;27;20258;-87
2022/08/06 20:02:17;;;;;;;11.70;8.00;;;27.90;66.80;;;;;;5120226;27;20173;-85
2022/08/06 20:04:44;;;;;;;12.55;8.00;;;27.90;65.90;;;;;;5092279;27;20536;-85
2022/08/06 20:07:10;;;;;;;12.00;7.30;;;27.90;65.30;;;;;;5103559;27;20630;-81
2022/08/06 20:09:36;;;;;;;15.15;8.05;;;27.80;64.90;;;;;;5121001;27;20506;-90
2022/08/06 20:12:03;;;;;;;11.82;7.55;;;27.80;64.90;;;;;;5119030;27;20035;-88
2022/08/06 20:14:29;;;;;;;14.85;8.07;;;27.80;65.00;;;;;;5119938;27;20032;-87
2022/08/06 20:16:55;;;;;;;8.68;7.78;;;27.80;64.90;;;;;;5106283;27;20047;-90
2022/08/06 20:19:21;;;;;;;14.27;8.38;;;27.70;64.80;;;;;;5090579;27;20406;-83
2022/08/06 20:21:47;;;;;;;15.27;8.93;;;27.70;65.10;;;;;;5123366;27;20031;-84
2022/08/06 20:24:12;;;;;;;18.60;8.43;;;27.70;65.60;;;;;;5106321;27;20031;-88
2022/08/06 20:26:39;;;;;;;13.88;8.30;;;27.60;66.00;;;;;;5122346;27;20091;-88
2022/08/06 20:29:06;;;;;;;12.27;8.30;;;27.70;65.60;;;;;;5118296;27;20039;-86
2022/08/06 20:31:32;;;;;;;15.50;8.50;;;27.60;65.20;;;;;;5118998;27;20076;-86
2022/08/06 20:34:00;;;;;;;10.88;8.43;;;27.70;65.40;;;;;;5121799;27;20031;-86
2022/08/06 20:36:28;;;;;;;9.68;8.32;;;27.70;65.10;;;;;;5105289;27;20396;-81
2022/08/06 20:38:54;;;;;;;10.35;8.40;;;27.60;65.00;;;;;;5106045;27;20064;-84
2022/08/06 20:41:21;;;;;;;14.75;8.45;;;27.60;65.30;;;;;;5108335;27;20054;-87
2022/08/06 20:43:47;;;;;;;15.02;8.98;;;27.60;65.30;;;;;;5123763;27;20042;-85
2022/08/06 20:46:13;;;;;;;14.57;9.30;;;27.60;65.60;;;;;;5123259;27;20035;-83
2022/08/06 20:48:39;;;;;;;13.10;8.73;;;27.60;65.40;;;;;;5121199;27;20524;-83
2022/08/06 20:51:05;;;;;;;9.85;8.77;;;27.50;65.40;;;;;;5124639;27;20039;-83
2022/08/06 20:53:31;;;;;;;13.00;9.05;;;27.50;65.60;;;;;;5123789;27;20027;-83
2022/08/06 20:55:58;;;;;;;13.88;9.35;;;27.50;65.70;;;;;;5124791;27;20038;-84
2022/08/06 20:58:24;;;;;;;13.35;9.30;;;27.50;65.70;;;;;;5107549;28;20024;-86
2022/08/06 21:00:50;;;;;;;17.30;9.07;;;27.40;65.80;;;;;;5105371;27;20035;-82
2022/08/06 21:03:16;;;;;;;17.13;9.55;;;27.40;65.90;;;;;;5118772;27;20054;-84
2022/08/06 21:05:42;;;;;;;15.70;9.40;;;27.40;66.00;;;;;;5124343;27;20080;-84
2022/08/06 21:08:08;;;;;;;13.25;9.35;;;27.40;66.40;;;;;;5123438;27;20032;-81
2022/08/06 21:10:35;;;;;;;15.70;9.45;;;27.40;66.20;;;;;;5104158;27;20029;-84
2022/08/06 21:13:02;;;;;;;13.70;8.65;;;27.40;65.80;;;;;;5089714;27;20084;-85
2022/08/06 21:15:29;;;;;;;12.60;9.55;;;27.40;65.70;;;;;;5121797;27;20062;-81
2022/08/06 21:17:55;;;;;;;9.85;8.85;;;27.40;65.50;;;;;;5122545;27;20042;-81
2022/08/06 21:20:21;;;;;;;12.02;8.98;;;27.40;65.60;;;;;;5123844;27;20108;-82
2022/08/06 21:22:48;;;;;;;14.52;9.07;;;27.30;65.70;;;;;;5103098;27;20056;-81
2022/08/06 21:25:15;;;;;;;12.23;8.95;;;27.30;65.70;;;;;;5086124;27;20059;-80
2022/08/06 21:27:47;;;;;;;11.55;9.23;;;27.30;65.70;;;;;;5122497;27;20202;-85
2022/08/06 21:30:23;;;;;;;16.73;11.48;;;27.30;65.60;;;;;;5088372;27;20128;-84
2022/08/06 21:32:50;;;;;;;15.30;10.75;;;27.20;65.60;;;;;;5102776;27;20056;-84
2022/08/06 21:35:16;;;;;;;16.15;10.48;;;27.20;65.80;;;;;;5121585;27;20027;-85
2022/08/06 21:37:43;;;;;;;14.30;9.48;;;27.20;65.90;;;;;;5086526;28;20043;-84
2022/08/06 21:40:14;;;;;;;15.57;10.27;;;27.20;65.90;;;;;;5100820;27;20070;-84
2022/08/06 21:42:42;;;;;;;13.25;9.38;;;27.10;66.00;;;;;;5100208;27;20117;-86
2022/08/06 21:45:09;;;;;;;12.85;9.32;;;27.10;66.10;;;;;;5085423;28;20027;-85
2022/08/06 21:47:36;;;;;;;12.57;9.68;;;27.00;66.00;;;;;;5115826;28;20447;-84
2022/08/06 21:50:02;;;;;;;14.43;9.13;;;27.00;66.30;;;;;;5101804;28;20528;-83
2022/08/06 21:52:28;;;;;;;12.68;8.93;;;27.00;66.50;;;;;;5103032;28;20083;-84
2022/08/06 21:54:55;;;;;;;11.52;9.40;;;26.90;66.30;;;;;;5102929;28;20126;-85
2022/08/06 21:57:23;;;;;;;14.23;9.45;;;26.90;66.40;;;;;;5105230;28;20046;-83
2022/08/06 21:59:49;;;;;;;13.55;9.20;;;26.90;66.50;;;;;;5122269;28;20024;-84
2022/08/06 22:02:15;;;;;;;17.02;9.40;;;26.90;66.60;;;;;;5124468;28;20027;-84
2022/08/06 22:04:41;;;;;;;17.90;9.35;;;26.80;66.80;;;;;;5101374;28;20031;-83
2022/08/06 22:07:07;;;;;;;11.20;8.95;;;26.80;66.70;;;;;;5120190;27;20119;-81
2022/08/06 22:09:33;;;;;;;18.95;9.05;;;26.80;67.30;;;;;;5121732;27;20462;-83
2022/08/06 22:11:59;;;;;;;15.27;9.05;;;26.80;66.70;;;;;;5118048;28;20201;-80
2022/08/06 22:14:25;;;;;;;11.45;8.90;;;26.70;67.10;;;;;;5124255;27;20039;-86
2022/08/06 22:16:51;;;;;;;12.88;9.52;;;26.70;67.40;;;;;;5114539;28;20067;-85
2022/08/06 22:19:17;;;;;;;17.23;9.40;;;26.70;67.50;;;;;;5101791;28;20157;-86
2022/08/06 22:21:43;;;;;;;12.30;9.02;;;26.70;67.40;;;;;;5117679;28;20036;-85
2022/08/06 22:24:11;;;;;;;12.38;8.70;;;26.60;67.20;;;;;;5104917;28;20045;-85
2022/08/06 22:26:37;;;;;;;10.90;8.85;;;26.60;67.40;;;;;;5105605;28;20027;-85
2022/08/06 22:29:03;;;;;;;16.58;9.50;;;26.60;67.60;;;;;;5120213;28;20035;-86
2022/08/06 22:31:29;;;;;;;10.05;9.05;;;26.60;67.60;;;;;;5120298;28;20050;-85
2022/08/06 22:33:55;;;;;;;13.05;9.43;;;26.50;67.60;;;;;;5090998;27;20087;-86
2022/08/06 22:36:21;;;;;;;16.02;9.68;;;26.50;67.80;;;;;;5103647;27;20413;-83
2022/08/06 22:38:47;;;;;;;14.60;9.90;;;26.50;67.90;;;;;;5126152;27;20038;-82
2022/08/06 22:41:13;;;;;;;14.38;9.65;;;26.50;67.80;;;;;;5120127;27;20039;-83
2022/08/06 22:43:39;;;;;;;16.40;10.18;;;26.40;67.90;;;;;;5093240;27;20066;-85
2022/08/06 22:46:05;;;;;;;13.85;9.98;;;26.40;68.20;;;;;;5122915;27;20072;-84
2022/08/06 22:48:31;;;;;;;14.07;9.70;;;26.40;68.70;;;;;;5109169;27;20538;-85
2022/08/06 22:50:57;;;;;;;16.48;10.10;;;26.30;69.00;;;;;;5093544;27;20038;-85
2022/08/06 22:53:23;;;;;;;12.95;9.80;;;26.30;69.30;;;;;;5124926;27;20064;-83
2022/08/06 22:55:49;;;;;;;14.77;9.80;;;26.30;69.70;;;;;;5118635;27;20364;-82
2022/08/06 22:58:15;;;;;;;11.20;9.70;;;26.20;69.30;;;;;;5111912;27;20027;-89
2022/08/06 23:00:41;;;;;;;14.25;9.75;;;26.20;69.10;;;;;;5126866;27;20044;-92
2022/08/06 23:03:07;;;;;;;16.75;10.10;;;26.20;68.90;;;;;;5128461;27;20693;-85
2022/08/06 23:05:33;;;;;;;19.60;10.13;;;26.30;69.00;;;;;;5134860;27;20114;-93
2022/08/06 23:07:59;;;;;;;15.75;9.50;;;26.30;69.00;;;;;;5116512;27;20032;-89
2022/08/06 23:10:25;;;;;;;12.88;10.13;;;26.30;69.10;;;;;;5124999;27;20042;-91
2022/08/06 23:12:51;;;;;;;12.30;10.57;;;26.20;69.00;;;;;;5123895;27;20058;-88
2022/08/06 23:15:18;;;;;;;13.70;10.02;;;26.20;69.90;;;;;;5127279;27;20085;-92
2022/08/06 23:17:44;;;;;;;11.60;10.02;;;26.20;69.50;;;;;;5134600;27;20118;-91
2022/08/06 23:20:10;;;;;;;15.45;10.30;;;26.20;69.70;;;;;;5128437;27;20027;-93
2022/08/06 23:22:37;;;;;;;11.55;9.98;;;26.20;69.60;;;;;;5125960;27;20038;-93
2022/08/06 23:25:04;;;;;;;13.00;10.48;;;26.20;69.70;;;;;;5123702;27;20031;-89
2022/08/06 23:27:30;;;;;;;12.40;10.93;;;26.10;69.70;;;;;;5125491;27;20063;-81
2022/08/06 23:29:56;;;;;;;19.33;10.68;;;26.10;69.80;;;;;;5124959;27;20114;-89
2022/08/06 23:32:22;;;;;;;16.58;11.40;;;26.10;69.90;;;;;;5107672;27;20148;-88
2022/08/06 23:34:49;;;;;;;14.55;10.80;;;26.00;70.00;;;;;;5126517;27;20023;-92
2022/08/06 23:37:15;;;;;;;17.02;11.00;;;25.90;70.10;;;;;;5122959;27;20035;-92
2022/08/06 23:39:42;;;;;;;18.10;12.32;;;25.90;70.20;;;;;;5125566;27;20039;-91
2022/08/06 23:42:08;;;;;;;16.45;11.60;;;25.90;70.40;;;;;;5106962;27;20027;-81
2022/08/06 23:44:34;;;;;;;18.23;11.73;;;25.90;70.50;;;;;;5121210;27;20459;-89
2022/08/06 23:47:00;;;;;;;20.02;11.98;;;25.90;70.60;;;;;;5105499;27;20233;-90
2022/08/06 23:49:26;;;;;;;18.17;11.77;;;25.90;70.60;;;;;;5119320;27;20131;-87
2022/08/06 23:51:55;;;;;;;21.02;11.85;;;25.90;70.70;;;;;;5123269;27;20032;-88
2022/08/06 23:54:23;;;;;;;14.75;11.43;;;25.90;70.70;;;;;;5106937;27;20035;-86
2022/08/06 23:56:50;;;;;;;16.17;11.80;;;25.80;70.70;;;;;;5123455;27;20031;-84
2022/08/06 23:59:17;;;;;;;18.33;12.98;;;25.80;70.80;;;;;;5119422;27;20035;-84
